sensor_id;sensor_type;location;lat;lon;timestamp;P1;durP1;ratioP1;P2;durP2;ratioP2
21593;SDS011;10959;51.328;7.322;2023-03-01T00:00:04;8.67;;;7.40;;
21593;SDS011;10959;51.328;7.322;2023-03-01T00:02:32;10.37;;;6.80;;
21593;SDS011;10959;51.328;7.322;2023-03-01T00:04:58;8.97;;;8.10;;
21593;SDS011;10959;51.328;7.322;2023-03-01T00:07:24;10.03;;;7.80;;
21593;SDS011;10959;51.328;7.322;2023-03-01T00:09:51;7.57;;;6.83;;
21593;SDS011;10959;51.328;7.322;2023-03-01T00:12:19;9.23;;;7.40;;
21593;SDS011;10959;51.328;7.322;2023-03-01T00:14:45;9.67;;;8.20;;
21593;SDS011;10959;51.328;7.322;2023-03-01T00:17:13;8.27;;;7.10;;
21593;SDS011;10959;51.328;7.322;2023-03-01T00:19:40;10.07;;;7.90;;
21593;SDS011;10959;51.328;7.322;2023-03-01T00:22:06;8.40;;;7.50;;
21593;SDS011;10959;51.328;7.322;2023-03-01T00:24:33;9.87;;;7.67;;
21593;SDS011;10959;51.328;7.322;2023-03-01T00:26:59;8.80;;;7.90;;
21593;SDS011;10959;51.328;7.322;2023-03-01T00:29:25;11.00;;;7.87;;
21593;SDS011;10959;51.328;7.322;2023-03-01T00:31:52;8.87;;;7.80;;
21593;SDS011;10959;51.328;7.322;2023-03-01T00:34:20;10.23;;;8.17;;
21593;SDS011;10959;51.328;7.322;2023-03-01T00:36:46;10.20;;;8.50;;
21593;SDS011;10959;51.328;7.322;2023-03-01T00:39:14;10.30;;;8.43;;
21593;SDS011;10959;51.328;7.322;2023-03-01T00:41:41;8.73;;;7.50;;
21593;SDS011;10959;51.328;7.322;2023-03-01T00:44:08;9.97;;;7.73;;
21593;SDS011;10959;51.328;7.322;2023-03-01T00:46:35;10.47;;;7.90;;
21593;SDS011;10959;51.328;7.322;2023-03-01T00:49:02;8.27;;;7.40;;
21593;SDS011;10959;51.328;7.322;2023-03-01T00:51:31;10.27;;;8.13;;
21593;SDS011;10959;51.328;7.322;2023-03-01T00:53:58;9.17;;;8.17;;
21593;SDS011;10959;51.328;7.322;2023-03-01T00:56:26;9.53;;;7.97;;
21593;SDS011;10959;51.328;7.322;2023-03-01T00:58:54;8.47;;;7.67;;
21593;SDS011;10959;51.328;7.322;2023-03-01T01:01:21;8.70;;;7.80;;
21593;SDS011;10959;51.328;7.322;2023-03-01T01:03:52;10.83;;;8.53;;
21593;SDS011;10959;51.328;7.322;2023-03-01T01:06:21;11.57;;;8.97;;
21593;SDS011;10959;51.328;7.322;2023-03-01T01:08:51;9.23;;;8.20;;
21593;SDS011;10959;51.328;7.322;2023-03-01T01:11:19;11.10;;;8.50;;
21593;SDS011;10959;51.328;7.322;2023-03-01T01:13:46;9.97;;;8.97;;
21593;SDS011;10959;51.328;7.322;2023-03-01T01:16:14;12.40;;;9.93;;
21593;SDS011;10959;51.328;7.322;2023-03-01T01:18:41;11.00;;;9.17;;
21593;SDS011;10959;51.328;7.322;2023-03-01T01:21:09;11.30;;;9.10;;
21593;SDS011;10959;51.328;7.322;2023-03-01T01:23:37;12.90;;;9.57;;
21593;SDS011;10959;51.328;7.322;2023-03-01T01:26:07;9.87;;;8.87;;
21593;SDS011;10959;51.328;7.322;2023-03-01T01:28:35;10.73;;;8.80;;
21593;SDS011;10959;51.328;7.322;2023-03-01T01:31:02;9.57;;;8.63;;
21593;SDS011;10959;51.328;7.322;2023-03-01T01:33:29;9.50;;;8.13;;
21593;SDS011;10959;51.328;7.322;2023-03-01T01:35:55;12.00;;;9.20;;
21593;SDS011;10959;51.328;7.322;2023-03-01T01:38:22;13.37;;;9.33;;
21593;SDS011;10959;51.328;7.322;2023-03-01T01:40:49;11.03;;;8.53;;
21593;SDS011;10959;51.328;7.322;2023-03-01T01:43:19;9.83;;;8.13;;
21593;SDS011;10959;51.328;7.322;2023-03-01T01:45:47;11.87;;;8.80;;
21593;SDS011;10959;51.328;7.322;2023-03-01T01:48:16;9.50;;;8.53;;
21593;SDS011;10959;51.328;7.322;2023-03-01T01:50:44;10.27;;;9.17;;
21593;SDS011;10959;51.328;7.322;2023-03-01T01:53:15;12.07;;;9.53;;
21593;SDS011;10959;51.328;7.322;2023-03-01T01:55:45;11.50;;;9.10;;
21593;SDS011;10959;51.328;7.322;2023-03-01T01:58:15;11.63;;;9.30;;
21593;SDS011;10959;51.328;7.322;2023-03-01T02:00:47;11.67;;;9.30;;
21593;SDS011;10959;51.328;7.322;2023-03-01T02:03:15;14.10;;;9.43;;
21593;SDS011;10959;51.328;7.322;2023-03-01T02:05:47;11.87;;;8.90;;
21593;SDS011;10959;51.328;7.322;2023-03-01T02:08:18;10.70;;;8.83;;
21593;SDS011;10959;51.328;7.322;2023-03-01T02:10:46;12.30;;;9.97;;
21593;SDS011;10959;51.328;7.322;2023-03-01T02:13:15;11.67;;;8.93;;
21593;SDS011;10959;51.328;7.322;2023-03-01T02:15:43;11.00;;;8.87;;
21593;SDS011;10959;51.328;7.322;2023-03-01T02:18:11;10.93;;;8.63;;
21593;SDS011;10959;51.328;7.322;2023-03-01T02:20:43;9.80;;;8.80;;
21593;SDS011;10959;51.328;7.322;2023-03-01T02:23:16;10.07;;;8.77;;
21593;SDS011;10959;51.328;7.322;2023-03-01T02:25:46;10.40;;;9.30;;
21593;SDS011;10959;51.328;7.322;2023-03-01T02:28:22;10.73;;;9.63;;
21593;SDS011;10959;51.328;7.322;2023-03-01T02:30:51;10.20;;;8.50;;
21593;SDS011;10959;51.328;7.322;2023-03-01T02:33:36;10.57;;;9.47;;
21593;SDS011;10959;51.328;7.322;2023-03-01T02:36:06;10.80;;;8.27;;
21593;SDS011;10959;51.328;7.322;2023-03-01T02:38:36;10.43;;;9.17;;
21593;SDS011;10959;51.328;7.322;2023-03-01T02:41:03;12.13;;;9.50;;
21593;SDS011;10959;51.328;7.322;2023-03-01T02:43:33;9.70;;;8.13;;
21593;SDS011;10959;51.328;7.322;2023-03-01T02:46:02;11.40;;;9.00;;
21593;SDS011;10959;51.328;7.322;2023-03-01T02:48:39;10.90;;;9.37;;
21593;SDS011;10959;51.328;7.322;2023-03-01T02:51:08;11.00;;;8.43;;
21593;SDS011;10959;51.328;7.322;2023-03-01T02:53:45;9.60;;;8.70;;
21593;SDS011;10959;51.328;7.322;2023-03-01T02:56:19;10.50;;;8.20;;
21593;SDS011;10959;51.328;7.322;2023-03-01T02:58:47;10.57;;;9.10;;
21593;SDS011;10959;51.328;7.322;2023-03-01T03:01:16;9.13;;;8.17;;
21593;SDS011;10959;51.328;7.322;2023-03-01T03:03:43;11.23;;;8.80;;
21593;SDS011;10959;51.328;7.322;2023-03-01T03:06:09;10.03;;;8.63;;
21593;SDS011;10959;51.328;7.322;2023-03-01T03:08:36;9.87;;;8.67;;
21593;SDS011;10959;51.328;7.322;2023-03-01T03:11:03;8.87;;;7.97;;
21593;SDS011;10959;51.328;7.322;2023-03-01T03:13:30;8.67;;;7.77;;
21593;SDS011;10959;51.328;7.322;2023-03-01T03:15:58;9.17;;;8.17;;
21593;SDS011;10959;51.328;7.322;2023-03-01T03:18:25;11.97;;;8.30;;
21593;SDS011;10959;51.328;7.322;2023-03-01T03:20:52;12.43;;;9.43;;
21593;SDS011;10959;51.328;7.322;2023-03-01T03:23:19;11.80;;;8.13;;
21593;SDS011;10959;51.328;7.322;2023-03-01T03:25:47;10.00;;;8.70;;
21593;SDS011;10959;51.328;7.322;2023-03-01T03:28:14;11.07;;;8.67;;
21593;SDS011;10959;51.328;7.322;2023-03-01T03:30:41;12.53;;;8.67;;
21593;SDS011;10959;51.328;7.322;2023-03-01T03:33:10;9.67;;;8.73;;
21593;SDS011;10959;51.328;7.322;2023-03-01T03:35:39;10.53;;;8.77;;
21593;SDS011;10959;51.328;7.322;2023-03-01T03:38:08;10.83;;;9.40;;
21593;SDS011;10959;51.328;7.322;2023-03-01T03:40:41;11.70;;;9.03;;
21593;SDS011;10959;51.328;7.322;2023-03-01T03:43:09;11.40;;;10.20;;
21593;SDS011;10959;51.328;7.322;2023-03-01T03:45:37;11.30;;;8.97;;
21593;SDS011;10959;51.328;7.322;2023-03-01T03:48:04;10.83;;;9.00;;
21593;SDS011;10959;51.328;7.322;2023-03-01T03:50:33;10.17;;;8.10;;
21593;SDS011;10959;51.328;7.322;2023-03-01T03:53:00;9.80;;;8.10;;
21593;SDS011;10959;51.328;7.322;2023-03-01T03:55:28;9.67;;;7.93;;
21593;SDS011;10959;51.328;7.322;2023-03-01T03:57:56;10.80;;;8.87;;
21593;SDS011;10959;51.328;7.322;2023-03-01T04:00:27;12.97;;;8.57;;
21593;SDS011;10959;51.328;7.322;2023-03-01T04:02:53;11.97;;;8.23;;
21593;SDS011;10959;51.328;7.322;2023-03-01T04:05:21;10.27;;;8.87;;
21593;SDS011;10959;51.328;7.322;2023-03-01T04:07:50;10.93;;;8.40;;
21593;SDS011;10959;51.328;7.322;2023-03-01T04:10:26;10.77;;;9.67;;
21593;SDS011;10959;51.328;7.322;2023-03-01T04:12:53;10.83;;;8.97;;
21593;SDS011;10959;51.328;7.322;2023-03-01T04:15:21;10.93;;;8.77;;
21593;SDS011;10959;51.328;7.322;2023-03-01T04:17:49;11.10;;;9.53;;
21593;SDS011;10959;51.328;7.322;2023-03-01T04:20:17;10.23;;;8.60;;
21593;SDS011;10959;51.328;7.322;2023-03-01T04:22:51;10.90;;;8.43;;
21593;SDS011;10959;51.328;7.322;2023-03-01T04:25:18;10.17;;;8.70;;
21593;SDS011;10959;51.328;7.322;2023-03-01T04:27:45;14.23;;;11.67;;
21593;SDS011;10959;51.328;7.322;2023-03-01T04:30:12;9.90;;;8.90;;
21593;SDS011;10959;51.328;7.322;2023-03-01T04:32:39;13.87;;;9.83;;
21593;SDS011;10959;51.328;7.322;2023-03-01T04:35:05;10.77;;;9.40;;
21593;SDS011;10959;51.328;7.322;2023-03-01T04:37:32;10.77;;;9.30;;
21593;SDS011;10959;51.328;7.322;2023-03-01T04:40:01;11.20;;;9.27;;
21593;SDS011;10959;51.328;7.322;2023-03-01T04:42:37;10.37;;;9.30;;
21593;SDS011;10959;51.328;7.322;2023-03-01T04:45:04;10.53;;;9.37;;
21593;SDS011;10959;51.328;7.322;2023-03-01T04:47:37;14.57;;;9.77;;
21593;SDS011;10959;51.328;7.322;2023-03-01T04:50:05;12.43;;;10.03;;
21593;SDS011;10959;51.328;7.322;2023-03-01T04:52:32;12.17;;;9.40;;
21593;SDS011;10959;51.328;7.322;2023-03-01T04:55:00;12.30;;;10.97;;
21593;SDS011;10959;51.328;7.322;2023-03-01T04:57:28;10.40;;;9.33;;
21593;SDS011;10959;51.328;7.322;2023-03-01T04:59:55;12.07;;;10.17;;
21593;SDS011;10959;51.328;7.322;2023-03-01T05:02:22;10.03;;;9.03;;
21593;SDS011;10959;51.328;7.322;2023-03-01T05:04:48;13.80;;;9.23;;
21593;SDS011;10959;51.328;7.322;2023-03-01T05:07:15;14.53;;;11.50;;
21593;SDS011;10959;51.328;7.322;2023-03-01T05:09:44;10.60;;;9.27;;
21593;SDS011;10959;51.328;7.322;2023-03-01T05:12:12;10.80;;;9.37;;
21593;SDS011;10959;51.328;7.322;2023-03-01T05:14:39;11.27;;;9.60;;
21593;SDS011;10959;51.328;7.322;2023-03-01T05:17:05;11.97;;;10.57;;
21593;SDS011;10959;51.328;7.322;2023-03-01T05:19:32;12.73;;;10.13;;
21593;SDS011;10959;51.328;7.322;2023-03-01T05:21:59;14.17;;;12.57;;
21593;SDS011;10959;51.328;7.322;2023-03-01T05:24:30;13.53;;;10.60;;
21593;SDS011;10959;51.328;7.322;2023-03-01T05:26:58;17.63;;;13.13;;
21593;SDS011;10959;51.328;7.322;2023-03-01T05:29:27;16.20;;;13.20;;
21593;SDS011;10959;51.328;7.322;2023-03-01T05:31:55;13.70;;;12.20;;
21593;SDS011;10959;51.328;7.322;2023-03-01T05:34:24;15.07;;;12.03;;
21593;SDS011;10959;51.328;7.322;2023-03-01T05:36:51;14.37;;;11.27;;
21593;SDS011;10959;51.328;7.322;2023-03-01T05:39:18;15.70;;;11.07;;
21593;SDS011;10959;51.328;7.322;2023-03-01T05:41:46;18.13;;;14.03;;
21593;SDS011;10959;51.328;7.322;2023-03-01T05:44:12;14.23;;;12.73;;
21593;SDS011;10959;51.328;7.322;2023-03-01T05:46:40;14.57;;;11.23;;
21593;SDS011;10959;51.328;7.322;2023-03-01T05:49:07;13.30;;;11.47;;
21593;SDS011;10959;51.328;7.322;2023-03-01T05:51:34;19.60;;;12.20;;
21593;SDS011;10959;51.328;7.322;2023-03-01T05:54:00;16.90;;;13.33;;
21593;SDS011;10959;51.328;7.322;2023-03-01T05:56:27;15.90;;;12.10;;
21593;SDS011;10959;51.328;7.322;2023-03-01T05:58:54;17.10;;;12.60;;
21593;SDS011;10959;51.328;7.322;2023-03-01T06:01:20;16.27;;;13.17;;
21593;SDS011;10959;51.328;7.322;2023-03-01T06:03:48;13.23;;;11.83;;
21593;SDS011;10959;51.328;7.322;2023-03-01T06:06:15;12.47;;;10.83;;
21593;SDS011;10959;51.328;7.322;2023-03-01T06:08:41;12.67;;;10.47;;
21593;SDS011;10959;51.328;7.322;2023-03-01T06:11:08;12.00;;;9.87;;
21593;SDS011;10959;51.328;7.322;2023-03-01T06:13:35;11.30;;;9.07;;
21593;SDS011;10959;51.328;7.322;2023-03-01T06:16:03;12.50;;;9.10;;
21593;SDS011;10959;51.328;7.322;2023-03-01T06:18:30;11.07;;;9.40;;
21593;SDS011;10959;51.328;7.322;2023-03-01T06:20:58;10.57;;;9.17;;
21593;SDS011;10959;51.328;7.322;2023-03-01T06:23:25;12.30;;;10.57;;
21593;SDS011;10959;51.328;7.322;2023-03-01T06:25:52;15.73;;;13.57;;
21593;SDS011;10959;51.328;7.322;2023-03-01T06:28:18;15.33;;;11.83;;
21593;SDS011;10959;51.328;7.322;2023-03-01T06:30:45;16.80;;;13.43;;
21593;SDS011;10959;51.328;7.322;2023-03-01T06:33:12;13.90;;;11.63;;
21593;SDS011;10959;51.328;7.322;2023-03-01T06:35:38;16.23;;;13.33;;
21593;SDS011;10959;51.328;7.322;2023-03-01T06:38:06;19.40;;;14.40;;
21593;SDS011;10959;51.328;7.322;2023-03-01T06:40:33;17.10;;;14.57;;
21593;SDS011;10959;51.328;7.322;2023-03-01T06:43:01;17.83;;;14.47;;
21593;SDS011;10959;51.328;7.322;2023-03-01T06:45:27;14.23;;;11.97;;
21593;SDS011;10959;51.328;7.322;2023-03-01T06:48:01;15.53;;;13.67;;
21593;SDS011;10959;51.328;7.322;2023-03-01T06:50:29;17.03;;;13.80;;
21593;SDS011;10959;51.328;7.322;2023-03-01T06:52:56;16.23;;;12.50;;
21593;SDS011;10959;51.328;7.322;2023-03-01T06:55:24;13.33;;;11.57;;
21593;SDS011;10959;51.328;7.322;2023-03-01T06:57:53;15.40;;;12.60;;
21593;SDS011;10959;51.328;7.322;2023-03-01T07:00:21;17.90;;;13.10;;
21593;SDS011;10959;51.328;7.322;2023-03-01T07:02:49;17.37;;;12.77;;
21593;SDS011;10959;51.328;7.322;2023-03-01T07:05:15;13.90;;;11.40;;
21593;SDS011;10959;51.328;7.322;2023-03-01T07:07:42;12.97;;;11.23;;
21593;SDS011;10959;51.328;7.322;2023-03-01T07:10:09;13.60;;;10.70;;
21593;SDS011;10959;51.328;7.322;2023-03-01T07:12:38;14.17;;;11.20;;
21593;SDS011;10959;51.328;7.322;2023-03-01T07:15:07;12.70;;;11.23;;
21593;SDS011;10959;51.328;7.322;2023-03-01T07:17:35;15.47;;;12.40;;
21593;SDS011;10959;51.328;7.322;2023-03-01T07:20:02;14.17;;;11.10;;
21593;SDS011;10959;51.328;7.322;2023-03-01T07:22:29;15.53;;;12.27;;
21593;SDS011;10959;51.328;7.322;2023-03-01T07:24:55;14.90;;;11.33;;
21593;SDS011;10959;51.328;7.322;2023-03-01T07:27:22;15.67;;;11.43;;
21593;SDS011;10959;51.328;7.322;2023-03-01T07:29:49;14.00;;;11.30;;
21593;SDS011;10959;51.328;7.322;2023-03-01T07:32:16;13.83;;;11.73;;
21593;SDS011;10959;51.328;7.322;2023-03-01T07:34:42;13.47;;;10.90;;
21593;SDS011;10959;51.328;7.322;2023-03-01T07:37:09;14.80;;;12.70;;
21593;SDS011;10959;51.328;7.322;2023-03-01T07:39:35;14.23;;;11.63;;
21593;SDS011;10959;51.328;7.322;2023-03-01T07:42:02;12.70;;;10.70;;
21593;SDS011;10959;51.328;7.322;2023-03-01T07:44:29;15.47;;;12.63;;
21593;SDS011;10959;51.328;7.322;2023-03-01T07:46:57;12.13;;;10.40;;
21593;SDS011;10959;51.328;7.322;2023-03-01T07:49:23;13.77;;;12.30;;
21593;SDS011;10959;51.328;7.322;2023-03-01T07:51:51;12.97;;;10.90;;
21593;SDS011;10959;51.328;7.322;2023-03-01T07:54:18;14.13;;;11.63;;
21593;SDS011;10959;51.328;7.322;2023-03-01T07:56:44;11.80;;;10.60;;
21593;SDS011;10959;51.328;7.322;2023-03-01T07:59:11;14.47;;;11.00;;
21593;SDS011;10959;51.328;7.322;2023-03-01T08:01:37;18.07;;;12.67;;
21593;SDS011;10959;51.328;7.322;2023-03-01T08:04:05;14.63;;;12.67;;
21593;SDS011;10959;51.328;7.322;2023-03-01T08:06:33;13.07;;;11.33;;
21593;SDS011;10959;51.328;7.322;2023-03-01T08:09:01;11.73;;;10.27;;
21593;SDS011;10959;51.328;7.322;2023-03-01T08:11:27;13.97;;;11.13;;
21593;SDS011;10959;51.328;7.322;2023-03-01T08:13:54;12.87;;;11.43;;
21593;SDS011;10959;51.328;7.322;2023-03-01T08:16:21;12.43;;;11.13;;
21593;SDS011;10959;51.328;7.322;2023-03-01T08:18:48;13.77;;;10.77;;
21593;SDS011;10959;51.328;7.322;2023-03-01T08:21:17;14.90;;;11.40;;
21593;SDS011;10959;51.328;7.322;2023-03-01T08:23:44;14.60;;;12.73;;
21593;SDS011;10959;51.328;7.322;2023-03-01T08:26:12;14.00;;;10.10;;
21593;SDS011;10959;51.328;7.322;2023-03-01T08:28:40;14.53;;;11.80;;
21593;SDS011;10959;51.328;7.322;2023-03-01T08:31:14;15.47;;;11.10;;
21593;SDS011;10959;51.328;7.322;2023-03-01T08:33:42;13.07;;;11.70;;
21593;SDS011;10959;51.328;7.322;2023-03-01T08:36:08;14.43;;;10.67;;
21593;SDS011;10959;51.328;7.322;2023-03-01T08:38:36;14.67;;;10.20;;
21593;SDS011;10959;51.328;7.322;2023-03-01T08:41:03;13.53;;;10.07;;
21593;SDS011;10959;51.328;7.322;2023-03-01T08:43:30;13.50;;;10.60;;
21593;SDS011;10959;51.328;7.322;2023-03-01T08:45:56;12.43;;;10.20;;
21593;SDS011;10959;51.328;7.322;2023-03-01T08:48:23;12.17;;;10.73;;
21593;SDS011;10959;51.328;7.322;2023-03-01T08:50:50;14.63;;;10.97;;
21593;SDS011;10959;51.328;7.322;2023-03-01T08:53:17;11.43;;;9.97;;
21593;SDS011;10959;51.328;7.322;2023-03-01T08:55:45;11.97;;;10.77;;
21593;SDS011;10959;51.328;7.322;2023-03-01T08:58:12;12.00;;;9.20;;
21593;SDS011;10959;51.328;7.322;2023-03-01T09:00:38;11.60;;;10.43;;
21593;SDS011;10959;51.328;7.322;2023-03-01T09:03:06;11.97;;;10.03;;
21593;SDS011;10959;51.328;7.322;2023-03-01T09:05:33;13.47;;;10.13;;
21593;SDS011;10959;51.328;7.322;2023-03-01T09:08:01;13.23;;;10.33;;
21593;SDS011;10959;51.328;7.322;2023-03-01T09:10:28;12.67;;;10.90;;
21593;SDS011;10959;51.328;7.322;2023-03-01T09:12:56;11.03;;;9.17;;
21593;SDS011;10959;51.328;7.322;2023-03-01T09:15:23;12.20;;;9.43;;
21593;SDS011;10959;51.328;7.322;2023-03-01T09:17:49;12.10;;;10.07;;
21593;SDS011;10959;51.328;7.322;2023-03-01T09:20:16;14.23;;;10.67;;
21593;SDS011;10959;51.328;7.322;2023-03-01T09:22:43;11.87;;;9.10;;
21593;SDS011;10959;51.328;7.322;2023-03-01T09:25:10;10.03;;;8.70;;
21593;SDS011;10959;51.328;7.322;2023-03-01T09:27:36;11.47;;;10.20;;
21593;SDS011;10959;51.328;7.322;2023-03-01T09:30:06;10.47;;;9.37;;
21593;SDS011;10959;51.328;7.322;2023-03-01T09:32:34;11.57;;;9.47;;
21593;SDS011;10959;51.328;7.322;2023-03-01T09:35:00;10.73;;;9.40;;
21593;SDS011;10959;51.328;7.322;2023-03-01T09:37:29;13.80;;;9.43;;
21593;SDS011;10959;51.328;7.322;2023-03-01T09:39:56;10.93;;;9.30;;
21593;SDS011;10959;51.328;7.322;2023-03-01T09:42:22;10.60;;;9.20;;
21593;SDS011;10959;51.328;7.322;2023-03-01T09:44:50;11.00;;;9.00;;
21593;SDS011;10959;51.328;7.322;2023-03-01T09:47:24;12.03;;;9.33;;
21593;SDS011;10959;51.328;7.322;2023-03-01T09:49:57;10.47;;;9.07;;
21593;SDS011;10959;51.328;7.322;2023-03-01T09:52:29;10.33;;;8.60;;
21593;SDS011;10959;51.328;7.322;2023-03-01T09:55:05;9.00;;;8.10;;
21593;SDS011;10959;51.328;7.322;2023-03-01T09:57:38;8.67;;;7.77;;
21593;SDS011;10959;51.328;7.322;2023-03-01T10:00:13;9.70;;;7.87;;
21593;SDS011;10959;51.328;7.322;2023-03-01T10:02:48;11.63;;;8.17;;
21593;SDS011;10959;51.328;7.322;2023-03-01T10:05:31;10.50;;;8.27;;
21593;SDS011;10959;51.328;7.322;2023-03-01T10:11:17;9.87;;;7.87;;
21593;SDS011;10959;51.328;7.322;2023-03-01T10:13:47;8.90;;;7.63;;
21593;SDS011;10959;51.328;7.322;2023-03-01T10:16:21;8.73;;;7.23;;
21593;SDS011;10959;51.328;7.322;2023-03-01T10:18:55;11.00;;;7.60;;
21593;SDS011;10959;51.328;7.322;2023-03-01T10:21:25;11.60;;;8.07;;
21593;SDS011;10959;51.328;7.322;2023-03-01T10:23:54;9.50;;;8.07;;
21593;SDS011;10959;51.328;7.322;2023-03-01T10:26:29;9.93;;;7.27;;
21593;SDS011;10959;51.328;7.322;2023-03-01T10:29:05;9.60;;;8.07;;
21593;SDS011;10959;51.328;7.322;2023-03-01T10:31:38;9.67;;;7.60;;
21593;SDS011;10959;51.328;7.322;2023-03-01T10:34:10;8.47;;;7.63;;
21593;SDS011;10959;51.328;7.322;2023-03-01T10:36:38;8.43;;;7.33;;
21593;SDS011;10959;51.328;7.322;2023-03-01T10:39:11;9.10;;;7.13;;
21593;SDS011;10959;51.328;7.322;2023-03-01T10:41:44;8.13;;;7.30;;
21593;SDS011;10959;51.328;7.322;2023-03-01T10:44:34;14.03;;;7.70;;
21593;SDS011;10959;51.328;7.322;2023-03-01T10:47:03;8.27;;;6.17;;
21593;SDS011;10959;51.328;7.322;2023-03-01T10:49:31;12.10;;;7.50;;
21593;SDS011;10959;51.328;7.322;2023-03-01T10:51:58;9.90;;;7.67;;
21593;SDS011;10959;51.328;7.322;2023-03-01T10:54:45;8.60;;;7.33;;
21593;SDS011;10959;51.328;7.322;2023-03-01T10:57:24;9.17;;;7.37;;
21593;SDS011;10959;51.328;7.322;2023-03-01T11:00:00;8.77;;;7.87;;
21593;SDS011;10959;51.328;7.322;2023-03-01T11:02:37;9.43;;;8.13;;
21593;SDS011;10959;51.328;7.322;2023-03-01T11:05:13;8.33;;;7.23;;
21593;SDS011;10959;51.328;7.322;2023-03-01T11:07:48;8.13;;;6.57;;
21593;SDS011;10959;51.328;7.322;2023-03-01T11:10:17;10.97;;;7.33;;
21593;SDS011;10959;51.328;7.322;2023-03-01T11:12:45;7.83;;;6.37;;
21593;SDS011;10959;51.328;7.322;2023-03-01T11:15:19;9.13;;;6.70;;
21593;SDS011;10959;51.328;7.322;2023-03-01T11:17:48;9.43;;;7.10;;
21593;SDS011;10959;51.328;7.322;2023-03-01T11:20:18;7.83;;;6.30;;
21593;SDS011;10959;51.328;7.322;2023-03-01T11:22:58;8.73;;;7.00;;
21593;SDS011;10959;51.328;7.322;2023-03-01T11:25:29;8.43;;;6.27;;
21593;SDS011;10959;51.328;7.322;2023-03-01T11:27:59;9.70;;;6.30;;
21593;SDS011;10959;51.328;7.322;2023-03-01T11:30:30;8.40;;;6.73;;
21593;SDS011;10959;51.328;7.322;2023-03-01T11:33:04;11.20;;;7.07;;
21593;SDS011;10959;51.328;7.322;2023-03-01T11:35:42;7.60;;;6.73;;
21593;SDS011;10959;51.328;7.322;2023-03-01T11:38:16;8.67;;;6.50;;
21593;SDS011;10959;51.328;7.322;2023-03-01T11:40:47;7.63;;;6.73;;
21593;SDS011;10959;51.328;7.322;2023-03-01T11:43:19;6.77;;;6.07;;
21593;SDS011;10959;51.328;7.322;2023-03-01T11:46:03;8.00;;;7.20;;
21593;SDS011;10959;51.328;7.322;2023-03-01T11:49:01;7.90;;;7.10;;
21593;SDS011;10959;51.328;7.322;2023-03-01T11:51:41;8.07;;;6.03;;
21593;SDS011;10959;51.328;7.322;2023-03-01T11:57:08;7.40;;;6.00;;
21593;SDS011;10959;51.328;7.322;2023-03-01T11:59:45;7.20;;;6.50;;
21593;SDS011;10959;51.328;7.322;2023-03-01T12:02:36;8.17;;;6.83;;
21593;SDS011;10959;51.328;7.322;2023-03-01T12:05:27;8.33;;;6.93;;
21593;SDS011;10959;51.328;7.322;2023-03-01T12:08:20;9.83;;;7.03;;
21593;SDS011;10959;51.328;7.322;2023-03-01T12:10:56;8.90;;;6.97;;
21593;SDS011;10959;51.328;7.322;2023-03-01T12:13:41;9.63;;;7.07;;
21593;SDS011;10959;51.328;7.322;2023-03-01T12:16:21;9.23;;;6.60;;
21593;SDS011;10959;51.328;7.322;2023-03-01T12:21:53;9.80;;;6.83;;
21593;SDS011;10959;51.328;7.322;2023-03-01T12:24:39;9.07;;;6.87;;
21593;SDS011;10959;51.328;7.322;2023-03-01T12:27:23;9.37;;;7.63;;
21593;SDS011;10959;51.328;7.322;2023-03-01T12:30:06;7.80;;;5.73;;
21593;SDS011;10959;51.328;7.322;2023-03-01T12:32:47;8.47;;;6.90;;
21593;SDS011;10959;51.328;7.322;2023-03-01T12:35:35;11.37;;;6.57;;
21593;SDS011;10959;51.328;7.322;2023-03-01T12:38:23;9.67;;;6.67;;
21593;SDS011;10959;51.328;7.322;2023-03-01T12:41:21;8.80;;;7.27;;
21593;SDS011;10959;51.328;7.322;2023-03-01T12:44:04;9.73;;;6.83;;
21593;SDS011;10959;51.328;7.322;2023-03-01T12:46:47;7.80;;;6.93;;
21593;SDS011;10959;51.328;7.322;2023-03-01T12:49:23;7.93;;;6.40;;
21593;SDS011;10959;51.328;7.322;2023-03-01T12:51:55;8.03;;;7.03;;
21593;SDS011;10959;51.328;7.322;2023-03-01T12:54:26;8.20;;;7.37;;
21593;SDS011;10959;51.328;7.322;2023-03-01T12:56:56;7.17;;;6.33;;
21593;SDS011;10959;51.328;7.322;2023-03-01T12:59:26;10.17;;;7.10;;
21593;SDS011;10959;51.328;7.322;2023-03-01T13:02:02;10.10;;;6.83;;
21593;SDS011;10959;51.328;7.322;2023-03-01T13:04:38;9.33;;;7.27;;
21593;SDS011;10959;51.328;7.322;2023-03-01T13:07:17;8.30;;;5.90;;
21593;SDS011;10959;51.328;7.322;2023-03-01T13:09:51;7.97;;;6.57;;
21593;SDS011;10959;51.328;7.322;2023-03-01T13:12:43;8.57;;;6.57;;
21593;SDS011;10959;51.328;7.322;2023-03-01T13:15:24;9.53;;;7.20;;
21593;SDS011;10959;51.328;7.322;2023-03-01T13:17:58;9.00;;;7.03;;
21593;SDS011;10959;51.328;7.322;2023-03-01T13:20:27;7.90;;;6.77;;
21593;SDS011;10959;51.328;7.322;2023-03-01T13:23:02;8.30;;;6.67;;
21593;SDS011;10959;51.328;7.322;2023-03-01T13:25:31;7.93;;;6.73;;
21593;SDS011;10959;51.328;7.322;2023-03-01T13:31:06;8.83;;;7.23;;
21593;SDS011;10959;51.328;7.322;2023-03-01T13:33:41;7.73;;;6.93;;
21593;SDS011;10959;51.328;7.322;2023-03-01T13:36:13;8.53;;;6.93;;
21593;SDS011;10959;51.328;7.322;2023-03-01T13:39:27;9.07;;;7.13;;
21593;SDS011;10959;51.328;7.322;2023-03-01T13:41:58;8.23;;;6.60;;
21593;SDS011;10959;51.328;7.322;2023-03-01T13:44:28;8.93;;;5.97;;
21593;SDS011;10959;51.328;7.322;2023-03-01T13:46:59;11.07;;;7.30;;
21593;SDS011;10959;51.328;7.322;2023-03-01T13:49:30;11.53;;;7.57;;
21593;SDS011;10959;51.328;7.322;2023-03-01T13:52:02;8.03;;;6.20;;
21593;SDS011;10959;51.328;7.322;2023-03-01T13:54:29;7.77;;;6.77;;
21593;SDS011;10959;51.328;7.322;2023-03-01T13:56:58;9.57;;;6.70;;
21593;SDS011;10959;51.328;7.322;2023-03-01T13:59:28;9.03;;;6.77;;
21593;SDS011;10959;51.328;7.322;2023-03-01T14:01:56;8.93;;;6.13;;
21593;SDS011;10959;51.328;7.322;2023-03-01T14:04:24;8.40;;;6.27;;
21593;SDS011;10959;51.328;7.322;2023-03-01T14:07:08;8.17;;;6.50;;
21593;SDS011;10959;51.328;7.322;2023-03-01T14:09:36;7.87;;;5.57;;
21593;SDS011;10959;51.328;7.322;2023-03-01T14:12:15;9.50;;;6.90;;
21593;SDS011;10959;51.328;7.322;2023-03-01T14:14:54;9.00;;;6.20;;
21593;SDS011;10959;51.328;7.322;2023-03-01T14:17:30;7.60;;;5.73;;
21593;SDS011;10959;51.328;7.322;2023-03-01T14:20:10;7.60;;;5.63;;
21593;SDS011;10959;51.328;7.322;2023-03-01T14:22:40;6.20;;;5.60;;
21593;SDS011;10959;51.328;7.322;2023-03-01T14:25:16;9.43;;;5.60;;
21593;SDS011;10959;51.328;7.322;2023-03-01T14:27:57;7.83;;;5.13;;
21593;SDS011;10959;51.328;7.322;2023-03-01T14:30:30;6.57;;;5.07;;
21593;SDS011;10959;51.328;7.322;2023-03-01T14:32:59;8.53;;;5.57;;
21593;SDS011;10959;51.328;7.322;2023-03-01T14:35:29;7.07;;;5.03;;
21593;SDS011;10959;51.328;7.322;2023-03-01T14:37:56;8.60;;;5.73;;
21593;SDS011;10959;51.328;7.322;2023-03-01T14:40:25;6.90;;;5.43;;
21593;SDS011;10959;51.328;7.322;2023-03-01T14:42:53;10.13;;;5.73;;
21593;SDS011;10959;51.328;7.322;2023-03-01T14:45:24;7.87;;;5.40;;
21593;SDS011;10959;51.328;7.322;2023-03-01T14:47:54;8.97;;;5.33;;
21593;SDS011;10959;51.328;7.322;2023-03-01T14:50:24;6.90;;;5.83;;
21593;SDS011;10959;51.328;7.322;2023-03-01T14:52:52;7.97;;;5.20;;
21593;SDS011;10959;51.328;7.322;2023-03-01T14:55:22;5.97;;;5.10;;
21593;SDS011;10959;51.328;7.322;2023-03-01T14:57:52;6.10;;;5.20;;
21593;SDS011;10959;51.328;7.322;2023-03-01T15:00:20;6.83;;;5.67;;
21593;SDS011;10959;51.328;7.322;2023-03-01T15:02:48;6.57;;;5.20;;
21593;SDS011;10959;51.328;7.322;2023-03-01T15:05:22;6.07;;;5.43;;